Time;durP1;ratioP1;P1;durP2;ratioP2;P2;SDS_P1;SDS_P2;PMS_P1;PMS_P2;Temp;Humidity;BMP_temperature;BMP_pressure;BME280_temperature;BME280_humidity;BME280_pressure;Samples;Min_cycle;Max_cycle;Signal;HPM_P1;HPM_P2
2022/05/29 00:00:13;;;;;;;1.95;0.90;;;;;;;12.46;56.28;100958.00;4946487;28;20459;-71
2022/05/29 00:02:40;;;;;;;0.60;0.60;;;;;;;12.50;55.98;100959.09;4955642;28;20031;-71
2022/05/29 00:05:07;;;;;;;0.77;0.60;;;;;;;12.64;55.78;100957.53;4948823;29;20031;-73
2022/05/29 00:07:33;;;;;;;2.88;0.93;;;;;;;12.67;55.93;100954.25;4946156;29;20031;-73
2022/05/29 00:10:03;;;;;;;0.85;0.77;;;;;;;12.66;55.67;100951.78;4943976;29;20016;-72
2022/05/29 00:12:29;;;;;;;1.95;0.80;;;;;;;12.70;56.00;100963.88;4959669;28;20047;-71
2022/05/29 00:14:55;;;;;;;0.85;0.63;;;;;;;12.66;56.05;100957.28;4966080;28;20023;-72
2022/05/29 00:17:20;;;;;;;1.80;0.70;;;;;;;12.66;55.80;100958.13;4940263;28;20046;-74
2022/05/29 00:19:46;;;;;;;1.52;0.95;;;;;;;12.60;56.38;100953.69;4934209;29;20028;-73
2022/05/29 00:22:19;;;;;;;1.10;0.70;;;;;;;12.49;56.24;100957.47;4933568;28;20701;-71
2022/05/29 00:24:47;;;;;;;1.00;0.70;;;;;;;12.35;56.12;100952.47;4965222;28;20063;-70
2022/05/29 00:27:16;;;;;;;2.00;0.90;;;;;;;12.36;56.72;100954.09;4929304;29;20057;-71
2022/05/29 00:29:42;;;;;;;2.38;0.90;;;;;;;12.44;56.75;100962.91;4928425;28;20059;-70
2022/05/29 00:32:08;;;;;;;0.80;0.80;;;;;;;12.45;56.03;100957.16;4942594;28;20027;-71
2022/05/29 00:34:34;;;;;;;1.30;0.75;;;;;;;12.46;56.09;100960.75;4931330;29;20414;-71
2022/05/29 00:37:00;;;;;;;1.13;0.68;;;;;;;12.38;56.23;100951.94;4956438;28;20019;-70
2022/05/29 00:39:28;;;;;;;0.77;0.40;;;;;;;12.28;56.47;100962.84;4932295;29;20039;-71
2022/05/29 00:41:54;;;;;;;0.73;0.50;;;;;;;12.23;56.38;100955.38;4926964;28;20039;-71
2022/05/29 00:44:26;;;;;;;1.02;0.60;;;;;;;12.23;56.51;100954.56;4937003;29;20126;-70
2022/05/29 00:46:55;;;;;;;0.85;0.60;;;;;;;12.34;56.83;100971.94;4952645;28;20106;-71
2022/05/29 00:49:26;;;;;;;0.98;0.52;;;;;;;12.44;56.47;100960.16;4939752;29;20152;-70
2022/05/29 00:51:59;;;;;;;3.20;0.65;;;;;;;12.51;56.64;100958.03;4931464;29;20028;-69
2022/05/29 00:54:30;;;;;;;0.77;0.50;;;;;;;12.53;56.85;100969.56;4943782;28;20152;-69
2022/05/29 00:56:59;;;;;;;0.60;0.50;;;;;;;12.50;56.45;100965.44;4940155;28;20031;-70
2022/05/29 00:59:29;;;;;;;1.83;0.65;;;;;;;12.48;56.68;100967.59;4936316;29;20016;-69
2022/05/29 01:01:56;;;;;;;1.02;0.70;;;;;;;12.43;56.55;100958.53;4948712;28;20030;-70
2022/05/29 01:04:21;;;;;;;1.45;0.60;;;;;;;12.34;57.03;100967.25;4939136;29;20042;-72
2022/05/29 01:06:48;;;;;;;0.85;0.40;;;;;;;12.26;56.63;100954.03;4957155;28;20039;-71
2022/05/29 01:09:14;;;;;;;0.50;0.50;;;;;;;12.20;56.89;100966.06;4942591;28;20118;-70
2022/05/29 01:12:31;;;;;;;0.77;0.47;;;;;;;12.16;57.09;100960.28;4950153;28;20067;-70
2022/05/29 01:15:22;;;;;;;1.20;0.65;;;;;;;12.19;57.54;100950.69;4935384;28;20027;-70
2022/05/29 01:18:00;;;;;;;0.82;0.60;;;;;;;12.27;57.33;100952.94;4952501;28;20030;-69
2022/05/29 01:21:03;;;;;;;1.58;0.60;;;;;;;12.29;56.97;100952.69;4953862;28;20553;-71
2022/05/29 01:23:51;;;;;;;1.20;0.50;;;;;;;12.15;57.42;100946.81;4948520;28;20031;-73
2022/05/29 01:26:48;;;;;;;0.70;0.50;;;;;;;12.04;57.89;100952.22;4955080;28;20067;-74
2022/05/29 01:29:18;;;;;;;2.78;0.60;;;;;;;12.00;58.00;100948.38;4961480;28;20123;-72
2022/05/29 01:31:47;;;;;;;1.42;0.50;;;;;;;12.08;57.89;100952.56;4966865;28;20114;-73
2022/05/29 01:34:12;;;;;;;1.50;0.60;;;;;;;12.12;57.30;100950.94;4960907;28;20063;-73
2022/05/29 01:37:23;;;;;;;1.00;0.43;;;;;;;12.22;57.24;100953.75;4953196;28;20039;-72
2022/05/29 01:39:52;;;;;;;0.95;0.40;;;;;;;12.30;56.84;100955.16;4951179;28;20039;-74
2022/05/29 01:42:30;;;;;;;3.28;0.43;;;;;;;12.35;56.98;100949.72;4963799;28;20470;-73
2022/05/29 01:45:19;;;;;;;0.50;0.45;;;;;;;12.37;56.14;100949.44;4944882;29;20039;-72
2022/05/29 01:48:07;;;;;;;0.30;0.30;;;;;;;12.51;56.03;100961.59;4947265;28;20033;-74
2022/05/29 01:50:50;;;;;;;2.05;0.68;;;;;;;12.54;56.01;100954.75;4957269;28;20036;-71
2022/05/29 01:53:41;;;;;;;0.65;0.38;;;;;;;12.50;55.52;100964.59;4941319;28;20023;-72
2022/05/29 01:56:21;;;;;;;0.98;0.40;;;;;;;12.51;55.21;100956.13;4929540;29;20051;-69
2022/05/29 01:59:04;;;;;;;1.02;0.20;;;;;;;12.49;55.37;100961.03;4947661;28;20027;-72
2022/05/29 02:01:34;;;;;;;0.95;0.40;;;;;;;12.43;54.96;100948.38;4957468;28;20086;-71
2022/05/29 02:04:04;;;;;;;1.42;0.40;;;;;;;12.44;54.93;100946.47;4962605;28;20033;-70
2022/05/29 02:09:30;;;;;;;0.65;0.40;;;;;;;12.41;54.96;100956.03;4949334;28;20046;-71
2022/05/29 02:12:00;;;;;;;0.65;0.30;;;;;;;12.39;54.74;100947.25;4963441;28;20072;-72
2022/05/29 02:14:34;;;;;;;0.28;0.28;;;;;;;12.34;54.67;100950.81;4968757;28;20034;-72
2022/05/29 02:17:10;;;;;;;0.65;0.28;;;;;;;12.27;54.42;100946.66;4944138;29;20117;-71
2022/05/29 02:20:02;;;;;;;1.58;0.40;;;;;;;12.25;54.92;100946.91;4951245;28;20035;-71
2022/05/29 02:22:29;;;;;;;0.52;0.30;;;;;;;12.27;54.56;100933.75;4939207;29;20038;-71
2022/05/29 02:25:02;;;;;;;0.60;0.50;;;;;;;12.33;54.80;100943.66;4954209;28;20050;-72
2022/05/29 02:27:52;;;;;;;1.67;0.40;;;;;;;12.32;54.65;100935.69;4944822;29;20171;-73
2022/05/29 02:30:18;;;;;;;1.20;0.43;;;;;;;12.28;54.20;100934.56;4943169;28;20031;-72
2022/05/29 02:33:07;;;;;;;1.50;0.50;;;;;;;12.13;53.95;100938.06;4974722;28;20067;-71
2022/05/29 02:36:19;;;;;;;1.10;0.47;;;;;;;11.91;54.77;100930.72;4950846;28;20042;-72
2022/05/29 02:39:31;;;;;;;1.45;0.63;;;;;;;11.64;55.32;100933.53;4947727;28;20501;-72
2022/05/29 02:42:22;;;;;;;1.08;0.45;;;;;;;11.49;55.39;100929.56;4935271;28;20106;-72
2022/05/29 02:44:59;;;;;;;1.05;0.55;;;;;;;11.39;55.31;100928.63;4957278;28;20037;-71
2022/05/29 02:47:44;;;;;;;1.27;0.52;;;;;;;11.27;55.72;100921.44;4954069;28;20063;-72
2022/05/29 02:50:22;;;;;;;2.30;0.40;;;;;;;11.15;55.74;100932.50;4969644;28;20047;-72
2022/05/29 02:52:53;;;;;;;1.30;0.30;;;;;;;11.08;55.87;100920.97;4953227;28;20031;-72
2022/05/29 02:55:23;;;;;;;0.88;0.40;;;;;;;11.06;56.46;100919.56;4949671;29;20038;-72
2022/05/29 02:57:59;;;;;;;0.50;0.40;;;;;;;10.99;56.54;100926.06;4951130;29;20024;-71
2022/05/29 03:00:29;;;;;;;0.45;0.45;;;;;;;10.96;56.74;100918.34;4948715;28;20035;-71
2022/05/29 03:03:16;;;;;;;1.40;0.50;;;;;;;10.98;56.55;100924.41;4952696;28;20031;-72
2022/05/29 03:06:02;;;;;;;0.30;0.30;;;;;;;11.03;56.48;100918.16;4951070;28;20024;-70
2022/05/29 03:08:53;;;;;;;2.22;0.40;;;;;;;11.10;56.60;100923.44;4942647;29;20046;-70
2022/05/29 03:11:39;;;;;;;1.17;0.40;;;;;;;11.11;56.45;100917.72;4956688;28;20030;-72
2022/05/29 03:14:16;;;;;;;2.55;0.65;;;;;;;11.10;56.76;100915.22;4943086;28;20453;-71
2022/05/29 03:17:28;;;;;;;0.90;0.57;;;;;;;11.05;56.28;100915.16;4946026;28;20034;-70
2022/05/29 03:20:38;;;;;;;2.30;0.65;;;;;;;11.10;56.63;100920.72;4958621;28;20054;-71
2022/05/29 03:23:30;;;;;;;0.52;0.30;;;;;;;11.10;56.79;100904.28;4966257;28;20049;-70
2022/05/29 03:26:13;;;;;;;1.80;0.47;;;;;;;11.11;56.84;100906.75;4967130;28;20486;-71
2022/05/29 03:28:49;;;;;;;2.85;0.40;;;;;;;11.12;56.55;100913.88;4951247;28;20063;-71
2022/05/29 03:31:21;;;;;;;1.42;0.50;;;;;;;11.10;56.63;100902.38;4945453;28;20027;-71
2022/05/29 03:33:48;;;;;;;0.38;0.38;;;;;;;11.11;56.60;100906.75;4942078;28;20062;-72
2022/05/29 03:36:17;;;;;;;0.30;0.30;;;;;;;11.11;56.51;100905.91;4947224;29;20031;-72
2022/05/29 03:38:46;;;;;;;1.60;0.43;;;;;;;11.12;56.46;100907.56;4911558;29;20371;-71
2022/05/29 03:41:20;;;;;;;1.75;0.50;;;;;;;11.14;56.31;100900.78;4933730;29;20047;-71
2022/05/29 03:43:46;;;;;;;1.70;0.30;;;;;;;11.16;56.54;100903.25;4944369;28;20347;-70
2022/05/29 03:46:11;;;;;;;0.32;0.30;;;;;;;11.19;56.28;100900.00;4925575;29;20066;-70
2022/05/29 03:48:37;;;;;;;0.30;0.30;;;;;;;11.17;56.19;100893.97;4953211;29;20027;-71
2022/05/29 03:51:05;;;;;;;0.57;0.38;;;;;;;11.20;55.69;100896.19;4923537;28;20032;-71
2022/05/29 03:53:31;;;;;;;0.63;0.25;;;;;;;11.19;55.93;100897.25;4952318;28;20083;-72
2022/05/29 03:55:57;;;;;;;0.90;0.30;;;;;;;11.23;55.96;100898.38;4926788;29;20029;-71
2022/05/29 03:58:23;;;;;;;0.65;0.35;;;;;;;11.21;55.83;100895.06;4942386;29;20486;-71
2022/05/29 04:00:48;;;;;;;0.93;0.40;;;;;;;11.23;55.43;100887.44;4922426;28;20035;-72
2022/05/29 04:03:14;;;;;;;1.90;0.65;;;;;;;11.21;55.55;100889.59;4934948;29;20171;-72
2022/05/29 04:05:39;;;;;;;0.40;0.38;;;;;;;11.18;55.59;100881.91;4920473;28;20030;-71
2022/05/29 04:13:47;;;;;;;0.30;0.25;;;;;;;10.83;55.87;100874.97;4956851;28;20075;-72
2022/05/29 04:16:14;;;;;;;0.30;0.30;;;;;;;10.71;55.73;100875.13;4941530;28;20494;-72
2022/05/29 04:18:39;;;;;;;2.30;0.30;;;;;;;10.59;55.93;100880.72;4926356;29;20050;-71
2022/05/29 04:21:05;;;;;;;1.20;0.40;;;;;;;10.54;55.86;100880.69;4953310;28;20031;-72
2022/05/29 04:23:31;;;;;;;0.40;0.30;;;;;;;10.48;56.53;100887.13;4937989;29;20063;-71
2022/05/29 04:25:57;;;;;;;0.30;0.30;;;;;;;10.40;56.21;100884.88;4951794;28;20035;-71
2022/05/29 04:28:23;;;;;;;1.10;0.50;;;;;;;10.39;56.48;100888.69;4941830;29;20041;-72
2022/05/29 04:30:49;;;;;;;1.17;0.43;;;;;;;10.41;56.77;100883.75;4926782;28;20054;-71
2022/05/29 04:33:15;;;;;;;0.75;0.30;;;;;;;10.48;56.42;100887.13;4933429;29;20030;-71
2022/05/29 04:35:43;;;;;;;0.40;0.40;;;;;;;10.52;55.99;100882.81;4939272;28;20020;-71
2022/05/29 04:38:10;;;;;;;0.30;0.30;;;;;;;10.56;55.92;100888.63;4965372;28;20026;-72
2022/05/29 04:40:37;;;;;;;0.45;0.28;;;;;;;10.58;55.76;100884.53;4936826;28;20030;-71
2022/05/29 04:43:03;;;;;;;0.52;0.35;;;;;;;10.69;55.64;100890.97;4937697;29;20471;-72
2022/05/29 04:45:29;;;;;;;0.90;0.30;;;;;;;10.77;55.43;100885.03;4952851;28;20083;-72
2022/05/29 04:47:55;;;;;;;0.77;0.30;;;;;;;10.87;55.02;100889.78;4923471;29;20035;-71
2022/05/29 04:50:20;;;;;;;0.30;0.30;;;;;;;10.93;54.80;100888.75;4949330;28;20032;-70
2022/05/29 04:52:46;;;;;;;2.20;0.38;;;;;;;11.04;54.42;100891.59;4920619;29;20058;-72
2022/05/29 04:55:11;;;;;;;0.75;0.30;;;;;;;11.08;54.33;100884.53;4951143;28;20045;-71
2022/05/29 04:57:37;;;;;;;1.30;0.43;;;;;;;11.16;54.37;100895.03;4949370;28;20038;-71
2022/05/29 05:00:05;;;;;;;3.40;0.35;;;;;;;11.18;53.62;100887.38;4932390;29;20032;-71
2022/05/29 05:02:31;;;;;;;0.38;0.30;;;;;;;11.24;53.71;100894.53;4931135;29;20054;-71
2022/05/29 05:04:56;;;;;;;0.75;0.50;;;;;;;11.30;53.16;100896.28;4916207;28;20538;-73
2022/05/29 05:07:21;;;;;;;0.47;0.20;;;;;;;11.28;53.26;100884.75;4929924;29;20031;-72
2022/05/29 05:09:48;;;;;;;0.20;0.20;;;;;;;11.38;53.09;100894.16;4944328;28;20026;-74
2022/05/29 05:12:14;;;;;;;0.30;0.30;;;;;;;11.48;52.92;100891.50;4940470;28;20032;-71
2022/05/29 05:14:40;;;;;;;0.30;0.30;;;;;;;11.47;52.87;100881.63;4941066;29;20051;-71
2022/05/29 05:17:05;;;;;;;0.30;0.20;;;;;;;11.49;53.19;100879.44;4951393;28;20137;-71
2022/05/29 05:19:31;;;;;;;0.50;0.30;;;;;;;11.54;53.18;100884.97;4926535;28;20422;-71
2022/05/29 05:22:00;;;;;;;0.20;0.20;;;;;;;11.56;52.91;100891.00;4922526;29;20039;-70
2022/05/29 05:24:27;;;;;;;0.20;0.20;;;;;;;11.59;52.94;100884.19;4943595;28;20046;-71
2022/05/29 05:26:52;;;;;;;0.30;0.20;;;;;;;11.63;52.84;100885.31;4949791;28;20062;-70
2022/05/29 05:29:18;;;;;;;0.20;0.20;;;;;;;11.70;52.54;100877.72;4924865;29;20121;-70
2022/05/29 05:31:44;;;;;;;0.65;0.20;;;;;;;11.74;52.57;100884.31;4943645;29;20034;-70
2022/05/29 05:34:09;;;;;;;0.20;0.20;;;;;;;11.80;52.06;100874.22;4943296;28;20143;-71
2022/05/29 05:36:35;;;;;;;0.50;0.40;;;;;;;11.88;52.04;100876.44;4938878;29;20394;-72
2022/05/29 05:39:01;;;;;;;0.20;0.20;;;;;;;11.93;52.02;100872.91;4940305;28;20040;-71
2022/05/29 05:41:26;;;;;;;0.47;0.30;;;;;;;11.98;51.57;100871.06;4957377;28;20030;-71
2022/05/29 05:43:52;;;;;;;0.30;0.30;;;;;;;12.04;52.10;100874.66;4942694;28;20391;-71
2022/05/29 05:46:18;;;;;;;0.85;0.30;;;;;;;12.26;51.42;100898.38;4947144;28;20031;-72
2022/05/29 05:48:45;;;;;;;0.40;0.30;;;;;;;12.40;51.40;100894.06;4950211;28;20046;-73
2022/05/29 05:51:11;;;;;;;0.52;0.50;;;;;;;12.52;51.10;100886.44;4920493;29;20070;-71
2022/05/29 05:53:40;;;;;;;0.30;0.30;;;;;;;12.66;50.59;100881.28;4944439;29;20030;-71
2022/05/29 05:56:08;;;;;;;0.28;0.28;;;;;;;12.86;50.30;100887.94;4944247;28;20051;-73
2022/05/29 05:58:33;;;;;;;0.32;0.30;;;;;;;12.96;50.12;100890.69;4939553;28;20036;-71
2022/05/29 06:01:06;;;;;;;0.40;0.40;;;;;;;13.08;49.70;100885.81;4941098;28;20103;-71
2022/05/29 06:03:32;;;;;;;0.20;0.20;;;;;;;13.16;49.77;100878.13;4932075;28;20031;-70
2022/05/29 06:05:58;;;;;;;0.77;0.30;;;;;;;13.27;49.41;100875.13;4934058;29;20419;-71
2022/05/29 06:08:24;;;;;;;0.50;0.20;;;;;;;13.34;49.28;100874.84;4902570;28;20084;-71
2022/05/29 06:10:49;;;;;;;0.47;0.30;;;;;;;13.35;49.49;100884.75;4939884;29;20475;-72
2022/05/29 06:13:15;;;;;;;0.10;0.10;;;;;;;13.35;49.60;100881.19;4955424;28;20090;-71
2022/05/29 06:15:44;;;;;;;0.20;0.20;;;;;;;13.48;49.56;100896.28;4949188;28;20046;-71
2022/05/29 06:18:10;;;;;;;1.48;0.30;;;;;;;13.64;48.67;100894.38;4949626;28;20039;-72
2022/05/29 06:20:35;;;;;;;0.38;0.20;;;;;;;13.78;48.67;100896.31;4932016;29;20415;-70
2022/05/29 06:23:01;;;;;;;0.30;0.30;;;;;;;13.76;48.48;100893.00;4950046;28;20043;-71
2022/05/29 06:25:28;;;;;;;0.20;0.20;;;;;;;13.70;47.90;100893.28;4961234;28;20031;-71
2022/05/29 06:27:53;;;;;;;1.08;0.45;;;;;;;13.62;48.19;100886.41;4958810;28;20034;-71
2022/05/29 06:30:19;;;;;;;0.85;0.40;;;;;;;13.64;48.17;100884.22;4938656;29;20343;-70
2022/05/29 06:32:45;;;;;;;0.82;0.40;;;;;;;13.69;48.28;100877.91;4925985;29;20474;-69
2022/05/29 06:35:12;;;;;;;0.30;0.30;;;;;;;13.87;48.09;100876.50;4950158;28;20055;-72
2022/05/29 06:37:39;;;;;;;0.65;0.30;;;;;;;14.00;48.11;100884.16;4939886;28;20054;-71
2022/05/29 06:40:06;;;;;;;2.80;0.60;;;;;;;14.06;47.39;100880.31;4934684;29;20111;-71
2022/05/29 06:42:32;;;;;;;1.25;0.20;;;;;;;14.07;47.80;100876.44;4933368;28;20038;-71
2022/05/29 06:44:59;;;;;;;1.95;0.68;;;;;;;14.07;47.24;100875.63;4931270;29;20426;-71
2022/05/29 06:47:25;;;;;;;1.17;0.30;;;;;;;13.99;47.84;100874.28;4941662;28;20034;-73
2022/05/29 06:49:51;;;;;;;0.68;0.40;;;;;;;13.95;47.60;100874.00;4937323;29;20115;-73
2022/05/29 06:52:18;;;;;;;0.50;0.40;;;;;;;14.01;47.17;100874.81;4945491;28;20060;-72
2022/05/29 06:54:45;;;;;;;3.70;0.73;;;;;;;14.04;47.19;100877.00;4960303;28;20373;-69
2022/05/29 06:57:12;;;;;;;1.50;0.30;;;;;;;14.01;47.31;100880.31;4936121;29;20035;-70
2022/05/29 07:07:58;;;;;;;0.57;0.38;;;;;;;14.13;47.40;100878.13;4950633;28;20055;-71
2022/05/29 07:10:25;;;;;;;1.48;0.47;;;;;;;14.16;47.84;100882.22;4940074;28;20048;-70
2022/05/29 07:12:51;;;;;;;1.98;0.43;;;;;;;14.22;47.55;100877.53;4956961;28;20040;-70
2022/05/29 07:15:18;;;;;;;0.93;0.40;;;;;;;14.39;46.88;100882.69;4957165;28;20098;-71
2022/05/29 07:17:44;;;;;;;2.15;0.30;;;;;;;14.45;47.06;100871.38;4942174;28;20475;-71
2022/05/29 07:20:11;;;;;;;1.10;0.65;;;;;;;14.71;46.56;100881.50;4946551;28;20055;-70
2022/05/29 07:22:40;;;;;;;0.98;0.35;;;;;;;14.88;46.31;100878.38;4915340;28;20063;-71
2022/05/29 07:25:07;;;;;;;1.70;0.50;;;;;;;15.05;46.18;100878.00;4932275;29;20027;-70
2022/05/29 07:27:33;;;;;;;1.25;0.70;;;;;;;15.26;45.92;100875.94;4942365;28;20047;-71
2022/05/29 07:29:59;;;;;;;3.03;0.65;;;;;;;15.44;45.60;100879.94;4914509;29;20493;-72
2022/05/29 07:32:24;;;;;;;0.98;0.55;;;;;;;15.56;44.87;100888.66;4940192;28;20159;-72
2022/05/29 07:34:50;;;;;;;3.28;0.80;;;;;;;15.69;45.14;100887.16;4924987;29;20107;-71
2022/05/29 07:37:17;;;;;;;0.90;0.35;;;;;;;16.06;45.38;100874.69;4930145;29;20047;-71
2022/05/29 07:39:49;;;;;;;1.00;0.43;;;;;;;16.30;44.07;100873.91;4941118;29;20024;-72
2022/05/29 07:45:16;;;;;;;4.95;0.93;;;;;;;16.69;43.57;100870.09;4877844;29;20056;-73
2022/05/29 07:47:43;;;;;;;19.45;1.63;;;;;;;16.94;43.01;100863.44;4930135;28;20138;-71
2022/05/29 07:50:13;;;;;;;10.50;1.35;;;;;;;16.95;41.89;100867.03;4937636;29;20031;-72
2022/05/29 07:52:38;;;;;;;2.45;0.52;;;;;;;16.98;41.90;100856.22;4942144;28;20118;-72
2022/05/29 07:55:04;;;;;;;8.43;0.65;;;;;;;17.10;41.77;100858.53;4941395;29;20054;-72
2022/05/29 07:57:30;;;;;;;4.35;1.00;;;;;;;17.31;41.31;100858.22;4949320;28;20027;-72
2022/05/29 07:59:55;;;;;;;2.97;0.73;;;;;;;17.37;41.26;100854.22;4934382;29;20057;-73
2022/05/29 08:02:21;;;;;;;3.85;0.73;;;;;;;17.54;41.04;100850.91;4922966;28;20027;-73
2022/05/29 08:04:47;;;;;;;3.53;0.60;;;;;;;17.52;40.28;100820.81;4949947;28;20038;-73
2022/05/29 08:07:15;;;;;;;0.95;0.40;;;;;;;17.67;40.30;100843.75;4927572;28;20027;-73
2022/05/29 08:09:41;;;;;;;3.53;0.50;;;;;;;17.45;40.36;100848.03;4950051;28;20023;-73
2022/05/29 08:12:07;;;;;;;1.20;0.55;;;;;;;17.49;40.88;100851.81;4937946;28;20050;-72
2022/05/29 08:14:32;;;;;;;2.25;0.60;;;;;;;17.49;40.37;100851.00;4942530;29;20031;-72
2022/05/29 08:16:58;;;;;;;2.17;0.60;;;;;;;17.50;40.57;100849.88;4942440;29;20042;-72
2022/05/29 08:19:23;;;;;;;2.72;0.47;;;;;;;17.69;40.41;100849.81;4932980;28;20122;-73
2022/05/29 08:21:49;;;;;;;1.77;0.70;;;;;;;18.27;39.99;100846.53;4946556;28;20020;-73
2022/05/29 08:32:27;;;;;;;2.00;0.70;;;;;;;19.83;36.49;100852.94;4943076;28;20518;-73
2022/05/29 08:34:52;;;;;;;13.35;5.00;;;;;;;20.11;36.27;100850.00;4941278;29;20051;-73
2022/05/29 08:37:19;;;;;;;19.35;10.77;;;;;;;20.29;35.88;100851.69;4912246;28;20148;-74
2022/05/29 08:39:44;;;;;;;10.35;6.03;;;;;;;20.36;35.60;100857.59;4930279;29;20106;-73
2022/05/29 08:42:16;;;;;;;11.68;7.38;;;;;;;20.57;34.30;100854.22;4900234;28;20035;-74
2022/05/29 08:44:50;;;;;;;10.32;5.10;;;;;;;20.89;34.29;100847.41;4956695;28;20046;-75
2022/05/29 08:47:24;;;;;;;9.15;3.63;;;;;;;20.88;33.82;100848.59;4933385;28;20026;-72
2022/05/29 08:49:50;;;;;;;7.40;2.88;;;;;;;21.03;34.10;100838.94;4946287;28;20038;-73
2022/05/29 08:52:21;;;;;;;5.53;1.40;;;;;;;21.39;33.79;100846.13;4913872;29;20047;-70
2022/05/29 08:55:01;;;;;;;4.97;1.50;;;;;;;21.39;32.98;100834.16;4945530;28;20056;-71
2022/05/29 08:57:47;;;;;;;4.25;2.10;;;;;;;21.24;33.50;100835.50;4942629;28;20090;-72
2022/05/29 09:00:29;;;;;;;5.45;1.83;;;;;;;21.17;34.01;100841.53;4938678;28;20031;-72
2022/05/29 09:03:10;;;;;;;3.25;1.27;;;;;;;21.45;33.67;100842.00;4943485;28;20046;-71
2022/05/29 09:05:48;;;;;;;2.08;0.80;;;;;;;21.91;33.03;100836.03;4953394;28;20427;-72
2022/05/29 09:08:32;;;;;;;4.47;0.90;;;;;;;22.14;32.62;100834.63;4924503;29;20041;-72
2022/05/29 09:11:20;;;;;;;;;;;;;;;22.21;32.24;100827.69;4944703;28;20030;-72
2022/05/29 09:13:54;;;;;;;3.22;0.70;;;;;;;22.53;31.81;100833.78;4939839;28;19915;-71
2022/05/29 10:01:27;;;;;;;2.63;0.70;;;;;;;18.98;34.39;100810.13;4393373;28;20058;-75
2022/05/29 10:03:58;;;;;;;2.47;0.60;;;;;;;18.59;35.37;100783.84;4905922;29;20059;-75
2022/05/29 10:06:50;;;;;;;2.15;0.88;;;;;;;18.47;35.27;100817.59;4918503;29;20027;-77
2022/05/29 10:09:43;;;;;;;1.85;0.70;;;;;;;17.85;36.24;100793.09;4925342;29;20062;-74
2022/05/29 10:12:18;;;;;;;2.00;0.80;;;;;;;17.62;37.33;100809.56;4922372;28;20115;-75
2022/05/29 10:14:45;;;;;;;2.30;0.60;;;;;;;17.44;37.83;100814.00;4926727;29;20029;-75
2022/05/29 10:17:14;;;;;;;1.10;0.50;;;;;;;17.10;38.59;100808.78;4926080;29;20023;-74
2022/05/29 10:19:45;;;;;;;1.20;0.50;;;;;;;16.70;39.80;100805.47;4928480;29;20055;-75
2022/05/29 10:22:26;;;;;;;1.58;0.50;;;;;;;16.52;40.36;100810.69;4938969;29;20446;-76
2022/05/29 10:24:54;;;;;;;3.55;0.68;;;;;;;16.31;41.09;100803.78;4926948;29;20039;-76
2022/05/29 10:27:31;;;;;;;3.90;0.40;;;;;;;16.28;41.20;100812.66;4921457;29;20039;-75
2022/05/29 10:30:03;;;;;;;0.75;0.50;;;;;;;16.10;41.35;100793.00;4929367;29;20052;-75
2022/05/29 10:32:34;;;;;;;1.30;0.30;;;;;;;16.18;41.95;100800.66;4930905;29;20032;-76
2022/05/29 10:35:17;;;;;;;0.88;0.40;;;;;;;16.44;41.27;100811.38;4934240;29;20023;-74
2022/05/29 10:37:44;;;;;;;0.20;0.10;;;;;;;16.64;40.76;100796.44;4935079;29;20115;-75
2022/05/29 10:40:36;;;;;;;0.43;0.20;;;;;;;16.95;40.00;100800.72;4939102;29;20024;-76
2022/05/29 10:43:04;;;;;;;0.73;0.30;;;;;;;17.39;39.43;100782.88;4924699;29;20038;-76
2022/05/29 10:45:41;;;;;;;0.65;0.30;;;;;;;18.05;38.60;100788.34;4928230;29;20021;-77
2022/05/29 10:48:37;;;;;;;1.13;0.30;;;;;;;18.89;37.07;100789.81;4915758;29;20060;-76
2022/05/29 10:51:18;;;;;;;0.63;0.30;;;;;;;20.15;34.89;100784.34;4932674;29;20031;-76
2022/05/29 10:53:53;;;;;;;1.20;0.43;;;;;;;21.53;33.60;100792.28;4923039;29;20036;-77
2022/05/29 10:56:41;;;;;;;2.72;0.40;;;;;;;25.48;30.11;100781.34;4920591;29;20142;-77
2022/05/29 10:59:32;;;;;;;2.78;0.38;;;;;;;29.49;25.33;100779.16;4934776;29;20027;-76
2022/05/29 11:05:43;;;;;;;0.65;0.35;;;;;;;34.17;20.04;100796.34;4937230;29;20048;-75
2022/05/29 11:08:34;;;;;;;0.88;0.30;;;;;;;33.34;19.80;100801.84;4944977;29;20038;-77
2022/05/29 11:11:38;;;;;;;0.52;0.35;;;;;;;31.87;21.28;100784.03;4936274;29;20024;-76
2022/05/29 11:14:34;;;;;;;1.23;0.40;;;;;;;30.39;22.00;100786.34;4865865;29;20024;-74
2022/05/29 11:17:05;;;;;;;1.00;0.50;;;;;;;29.60;22.57;100791.34;4936837;29;20049;-76
2022/05/29 11:19:47;;;;;;;2.55;0.40;;;;;;;30.46;22.52;100780.78;4946764;28;20023;-76
2022/05/29 11:22:34;;;;;;;1.70;0.57;;;;;;;31.64;20.75;100778.75;4941507;29;20028;-75
2022/05/29 11:25:22;;;;;;;1.88;0.43;;;;;;;31.74;20.24;100782.81;4934765;29;20089;-75
2022/05/29 11:28:13;;;;;;;2.35;1.05;;;;;;;31.14;20.27;100774.63;4915240;28;20042;-75
2022/05/29 11:30:41;;;;;;;2.78;0.57;;;;;;;31.06;20.07;100767.34;4971361;28;20398;-75
2022/05/29 11:33:14;;;;;;;1.98;0.95;;;;;;;32.12;19.49;100769.88;4951115;29;20036;-73
2022/05/29 11:35:45;;;;;;;2.47;0.70;;;;;;;33.72;18.56;100757.41;4964650;28;20099;-75
2022/05/29 11:38:49;;;;;;;1.48;0.50;;;;;;;35.09;17.06;100763.66;4969139;28;20031;-76
2022/05/29 11:41:25;;;;;;;1.23;0.60;;;;;;;37.67;14.72;100767.72;4901605;29;20076;-76
2022/05/29 11:44:07;;;;;;;1.50;0.50;;;;;;;38.05;14.16;100747.97;4966582;28;20028;-76
2022/05/29 11:52:46;;;;;;;5.78;2.33;;;;;;;37.82;14.19;100751.03;4955982;28;20054;-78
2022/05/29 11:55:14;;;;;;;5.90;1.63;;;;;;;35.44;15.16;100727.44;4952029;29;20446;-77
2022/05/29 11:57:51;;;;;;;4.68;1.92;;;;;;;33.27;16.81;100739.56;4960447;28;21011;-77
2022/05/29 12:00:57;;;;;;;2.58;0.75;;;;;;;32.78;17.88;100714.72;4955276;28;20032;-77
2022/05/29 12:03:43;;;;;;;1.25;0.70;;;;;;;37.70;14.84;100733.38;4938596;29;21109;-77
2022/05/29 12:06:15;;;;;;;1.05;0.43;;;;;;;36.87;14.67;100728.81;4945089;28;20038;-77
2022/05/29 12:08:57;;;;;;;2.00;0.88;;;;;;;36.66;15.00;100719.50;4957141;28;21508;-77
2022/05/29 12:11:33;;;;;;;1.05;0.50;;;;;;;40.26;12.39;100725.56;4934381;29;20023;-78
2022/05/29 12:14:20;;;;;;;2.40;0.95;;;;;;;40.63;11.64;100728.69;4941213;28;20023;-78
2022/05/29 12:16:50;;;;;;;5.18;0.50;;;;;;;40.05;12.08;100714.88;4943337;29;20031;-78
2022/05/29 12:19:24;;;;;;;0.88;0.30;;;;;;;38.79;12.69;100713.31;4942371;28;20323;-78
2022/05/29 12:21:57;;;;;;;1.90;0.55;;;;;;;36.94;13.58;100688.78;4943364;29;20046;-78
2022/05/29 12:24:29;;;;;;;8.52;0.90;;;;;;;34.71;14.70;100699.25;4937659;29;20030;-76
2022/05/29 12:27:28;;;;;;;3.00;1.00;;;;;;;31.91;16.77;100702.03;4945510;28;20110;-76
2022/05/29 12:30:19;;;;;;;1.58;0.73;;;;;;;30.97;17.97;100697.09;4931441;29;20067;-77
2022/05/29 12:32:45;;;;;;;3.47;0.90;;;;;;;36.57;14.57;100695.72;4933717;29;20039;-78
2022/05/29 12:35:20;;;;;;;7.45;1.08;;;;;;;42.23;11.20;100711.44;4894826;28;20031;-76
2022/05/29 12:38:00;;;;;;;2.75;0.60;;;;;;;47.08;9.33;100705.13;4956136;28;20030;-77
2022/05/29 12:40:44;;;;;;;3.65;0.45;;;;;;;49.18;7.09;100691.88;4941553;28;20035;-78
2022/05/29 12:43:37;;;;;;;1.13;0.52;;;;;;;47.22;7.94;100695.47;4955822;28;20051;-78
2022/05/29 12:46:22;;;;;;;1.10;0.40;;;;;;;43.92;9.60;100678.06;4932628;29;20069;-80
2022/05/29 12:49:03;;;;;;;5.07;0.52;;;;;;;46.00;8.37;100681.81;4943145;29;20478;-81
2022/05/29 12:52:09;;;;;;;2.78;0.60;;;;;;;46.95;7.31;100676.59;4952125;29;20011;-79
2022/05/29 12:55:37;;;;;;;0.90;0.43;;;;;;;48.38;7.26;100665.84;4956447;28;20054;-76
2022/05/29 12:58:40;;;;;;;2.17;0.52;;;;;;;48.54;6.63;100666.38;4872931;29;20028;-78
2022/05/29 13:01:19;;;;;;;3.42;0.40;;;;;;;43.18;8.54;100649.84;4864969;29;20076;-77
2022/05/29 13:04:37;;;;;;;6.75;0.68;;;;;;;38.74;11.11;100652.59;4935787;29;20046;-77
2022/05/29 13:07:20;;;;;;;1.48;0.50;;;;;;;36.42;13.39;100649.63;4845541;29;20523;-77
2022/05/29 13:10:12;;;;;;;0.82;0.40;;;;;;;35.27;14.16;100647.69;4866019;29;20048;-76
2022/05/29 13:12:43;;;;;;;1.30;0.40;;;;;;;34.22;14.75;100619.97;4929297;28;20095;-78
2022/05/29 13:15:23;;;;;;;0.30;0.30;;;;;;;33.31;15.64;100638.31;4952213;28;20062;-80
2022/05/29 13:18:39;;;;;;;0.80;0.50;;;;;;;32.60;15.97;100623.41;4950806;28;20082;-78